Plattsburgh International Airport Plattsburgh US
ICAO: KPBG
IATA: PBG
Category: Medium
Scheduled Services: Yes

Elevation: 234 ft
TransAlt. 18000 ft.

Airport Communications:
BURLINGTON APP/DEP:121.1
CTAF/UNICOM:122.7

KPBG Zoom In..

If you have problems with the map follow the link
https://www.worldairports.se/pages/airport.php?
ICAO=KPBG

Runways:

(A) RW 17 length 11758 ft width 200 ft
ILS 109.70 / hdg 172

(B) RW 35 length 11758 ft width 200 ft
ILS 109.70 / hdg 352

Location; KPBG
Day. 25 / Time. 22.53 Zulu
* Altimeter: 29.92
* Temperature: 01° c. 33.8°f.
* Wind from: 320° Speed 04 kn.
Dewpoint: 01° c.
Visibility: 10 Statute Miles.
Clouds: Few 2900 ft.
Clouds: Broken 6000 ft.
Clouds: Overcast 7000 ft.
Conditions: Light Rain.

KPBG 252253Z AUTO 32004KT 10SM -RA FEW029 BKN060 OVC070 01/01 A2992 RMK AO2 SLP134 P0003 T00110006


Wind From 320°
Speed 04 kn.

 
 
jpsmedia worldairports.se 2020   terms of use